sensor_id;sensor_type;location;lat;lon;timestamp;P1;durP1;ratioP1;P2;durP2;ratioP2
65210;SDS011;51794;52.758;55.792;2022-09-02T00:01:21;6.63;;;3.40;;
65210;SDS011;51794;52.758;55.792;2022-09-02T00:03:49;4.85;;;3.20;;
65210;SDS011;51794;52.758;55.792;2022-09-02T00:06:16;5.50;;;3.20;;
65210;SDS011;51794;52.758;55.792;2022-09-02T00:08:42;5.38;;;3.30;;
65210;SDS011;51794;52.758;55.792;2022-09-02T00:11:11;6.20;;;3.40;;
65210;SDS011;51794;52.758;55.792;2022-09-02T00:13:39;5.25;;;3.42;;
65210;SDS011;51794;52.758;55.792;2022-09-02T00:16:05;5.82;;;3.30;;
65210;SDS011;51794;52.758;55.792;2022-09-02T00:18:31;6.30;;;3.47;;
65210;SDS011;51794;52.758;55.792;2022-09-02T00:20:58;6.50;;;3.15;;
65210;SDS011;51794;52.758;55.792;2022-09-02T00:23:24;4.47;;;3.42;;
65210;SDS011;51794;52.758;55.792;2022-09-02T00:25:50;5.60;;;3.42;;
65210;SDS011;51794;52.758;55.792;2022-09-02T00:28:17;7.90;;;4.10;;
65210;SDS011;51794;52.758;55.792;2022-09-02T00:30:43;9.52;;;4.45;;
65210;SDS011;51794;52.758;55.792;2022-09-02T00:33:10;6.53;;;3.90;;
65210;SDS011;51794;52.758;55.792;2022-09-02T00:35:39;5.70;;;3.80;;
65210;SDS011;51794;52.758;55.792;2022-09-02T00:38:06;8.35;;;4.15;;
65210;SDS011;51794;52.758;55.792;2022-09-02T00:40:33;7.18;;;3.90;;
65210;SDS011;51794;52.758;55.792;2022-09-02T00:42:59;7.55;;;4.30;;
65210;SDS011;51794;52.758;55.792;2022-09-02T00:45:26;6.80;;;3.90;;
65210;SDS011;51794;52.758;55.792;2022-09-02T00:47:52;7.32;;;4.10;;
65210;SDS011;51794;52.758;55.792;2022-09-02T00:50:20;7.78;;;4.18;;
65210;SDS011;51794;52.758;55.792;2022-09-02T00:52:53;6.75;;;4.15;;
65210;SDS011;51794;52.758;55.792;2022-09-02T00:55:24;6.53;;;4.45;;
65210;SDS011;51794;52.758;55.792;2022-09-02T00:57:53;9.02;;;3.83;;
65210;SDS011;51794;52.758;55.792;2022-09-02T01:00:25;5.78;;;3.75;;
65210;SDS011;51794;52.758;55.792;2022-09-02T01:02:55;5.50;;;4.20;;
65210;SDS011;51794;52.758;55.792;2022-09-02T01:05:24;9.25;;;4.43;;
65210;SDS011;51794;52.758;55.792;2022-09-02T01:07:54;7.22;;;4.05;;
65210;SDS011;51794;52.758;55.792;2022-09-02T01:10:22;10.52;;;4.47;;
65210;SDS011;51794;52.758;55.792;2022-09-02T01:12:54;5.93;;;4.43;;
65210;SDS011;51794;52.758;55.792;2022-09-02T01:15:22;9.00;;;4.22;;
65210;SDS011;51794;52.758;55.792;2022-09-02T01:17:49;7.20;;;4.05;;
65210;SDS011;51794;52.758;55.792;2022-09-02T01:20:18;7.30;;;4.75;;
65210;SDS011;51794;52.758;55.792;2022-09-02T01:22:46;8.73;;;4.30;;
65210;SDS011;51794;52.758;55.792;2022-09-02T01:25:19;9.20;;;4.80;;
65210;SDS011;51794;52.758;55.792;2022-09-02T01:27:47;8.43;;;4.60;;
65210;SDS011;51794;52.758;55.792;2022-09-02T01:30:16;6.40;;;4.93;;
65210;SDS011;51794;52.758;55.792;2022-09-02T01:32:47;7.45;;;4.22;;
65210;SDS011;51794;52.758;55.792;2022-09-02T01:35:14;8.35;;;4.90;;
65210;SDS011;51794;52.758;55.792;2022-09-02T01:37:41;6.68;;;4.75;;
65210;SDS011;51794;52.758;55.792;2022-09-02T01:40:09;11.20;;;5.00;;
65210;SDS011;51794;52.758;55.792;2022-09-02T01:42:38;6.00;;;4.40;;
65210;SDS011;51794;52.758;55.792;2022-09-02T01:45:06;5.78;;;4.72;;
65210;SDS011;51794;52.758;55.792;2022-09-02T01:47:33;8.20;;;4.85;;
65210;SDS011;51794;52.758;55.792;2022-09-02T01:50:00;10.15;;;4.97;;
65210;SDS011;51794;52.758;55.792;2022-09-02T01:52:27;10.95;;;4.82;;
65210;SDS011;51794;52.758;55.792;2022-09-02T01:54:54;7.93;;;4.75;;
65210;SDS011;51794;52.758;55.792;2022-09-02T01:57:20;8.13;;;5.53;;
65210;SDS011;51794;52.758;55.792;2022-09-02T01:59:49;8.07;;;4.72;;
65210;SDS011;51794;52.758;55.792;2022-09-02T02:02:16;7.85;;;4.47;;
65210;SDS011;51794;52.758;55.792;2022-09-02T02:04:43;7.78;;;4.70;;
65210;SDS011;51794;52.758;55.792;2022-09-02T02:07:11;7.95;;;5.03;;
65210;SDS011;51794;52.758;55.792;2022-09-02T02:09:38;8.38;;;4.80;;
65210;SDS011;51794;52.758;55.792;2022-09-02T02:12:06;8.32;;;4.68;;
65210;SDS011;51794;52.758;55.792;2022-09-02T02:14:32;8.65;;;4.72;;
65210;SDS011;51794;52.758;55.792;2022-09-02T02:16:59;8.13;;;4.90;;
65210;SDS011;51794;52.758;55.792;2022-09-02T02:19:25;10.00;;;5.05;;
65210;SDS011;51794;52.758;55.792;2022-09-02T02:21:51;7.70;;;5.18;;
65210;SDS011;51794;52.758;55.792;2022-09-02T02:24:17;9.10;;;4.78;;
65210;SDS011;51794;52.758;55.792;2022-09-02T02:26:43;9.55;;;5.18;;
65210;SDS011;51794;52.758;55.792;2022-09-02T02:29:10;8.00;;;4.95;;
65210;SDS011;51794;52.758;55.792;2022-09-02T02:31:36;10.55;;;4.63;;
65210;SDS011;51794;52.758;55.792;2022-09-02T02:34:02;11.32;;;4.85;;
65210;SDS011;51794;52.758;55.792;2022-09-02T02:36:29;6.32;;;4.78;;
65210;SDS011;51794;52.758;55.792;2022-09-02T02:38:55;7.57;;;4.88;;
65210;SDS011;51794;52.758;55.792;2022-09-02T02:41:22;9.70;;;4.90;;
65210;SDS011;51794;52.758;55.792;2022-09-02T02:43:48;8.15;;;5.10;;
65210;SDS011;51794;52.758;55.792;2022-09-02T02:46:14;6.85;;;4.90;;
65210;SDS011;51794;52.758;55.792;2022-09-02T02:48:41;11.27;;;4.93;;
65210;SDS011;51794;52.758;55.792;2022-09-02T02:51:07;9.40;;;4.78;;
65210;SDS011;51794;52.758;55.792;2022-09-02T02:53:34;10.45;;;4.85;;
65210;SDS011;51794;52.758;55.792;2022-09-02T02:56:01;10.45;;;4.63;;
65210;SDS011;51794;52.758;55.792;2022-09-02T02:58:28;7.05;;;4.63;;
65210;SDS011;51794;52.758;55.792;2022-09-02T03:00:54;9.98;;;5.30;;
65210;SDS011;51794;52.758;55.792;2022-09-02T03:03:21;13.45;;;5.20;;
65210;SDS011;51794;52.758;55.792;2022-09-02T03:05:47;9.25;;;4.82;;
65210;SDS011;51794;52.758;55.792;2022-09-02T03:08:14;5.97;;;5.28;;
65210;SDS011;51794;52.758;55.792;2022-09-02T03:10:45;10.00;;;4.95;;
65210;SDS011;51794;52.758;55.792;2022-09-02T03:13:14;9.68;;;4.57;;
65210;SDS011;51794;52.758;55.792;2022-09-02T03:15:40;10.57;;;5.28;;
65210;SDS011;51794;52.758;55.792;2022-09-02T03:18:07;9.38;;;5.05;;
65210;SDS011;51794;52.758;55.792;2022-09-02T03:20:33;9.50;;;5.30;;
65210;SDS011;51794;52.758;55.792;2022-09-02T03:22:59;10.52;;;5.53;;
65210;SDS011;51794;52.758;55.792;2022-09-02T03:25:27;8.90;;;5.00;;
65210;SDS011;51794;52.758;55.792;2022-09-02T03:27:54;10.27;;;5.40;;
65210;SDS011;51794;52.758;55.792;2022-09-02T03:30:22;12.98;;;5.60;;
65210;SDS011;51794;52.758;55.792;2022-09-02T03:32:50;9.02;;;5.28;;
65210;SDS011;51794;52.758;55.792;2022-09-02T03:35:18;8.40;;;5.65;;
65210;SDS011;51794;52.758;55.792;2022-09-02T03:37:46;9.40;;;5.70;;
65210;SDS011;51794;52.758;55.792;2022-09-02T03:40:14;9.82;;;5.32;;
65210;SDS011;51794;52.758;55.792;2022-09-02T03:42:43;13.57;;;6.18;;
65210;SDS011;51794;52.758;55.792;2022-09-02T03:45:09;11.07;;;5.60;;
65210;SDS011;51794;52.758;55.792;2022-09-02T03:47:35;9.52;;;6.15;;
65210;SDS011;51794;52.758;55.792;2022-09-02T03:50:04;15.52;;;6.20;;
65210;SDS011;51794;52.758;55.792;2022-09-02T03:52:31;10.00;;;6.13;;
65210;SDS011;51794;52.758;55.792;2022-09-02T03:54:57;12.02;;;6.30;;
65210;SDS011;51794;52.758;55.792;2022-09-02T03:57:22;9.38;;;6.05;;
65210;SDS011;51794;52.758;55.792;2022-09-02T03:59:51;13.75;;;6.45;;
65210;SDS011;51794;52.758;55.792;2022-09-02T04:02:17;9.25;;;6.05;;
65210;SDS011;51794;52.758;55.792;2022-09-02T04:04:43;8.90;;;6.30;;
65210;SDS011;51794;52.758;55.792;2022-09-02T04:07:09;9.88;;;6.55;;
65210;SDS011;51794;52.758;55.792;2022-09-02T04:09:35;10.05;;;6.80;;
65210;SDS011;51794;52.758;55.792;2022-09-02T04:12:02;11.70;;;6.80;;
65210;SDS011;51794;52.758;55.792;2022-09-02T04:14:29;12.43;;;7.18;;
65210;SDS011;51794;52.758;55.792;2022-09-02T04:16:58;10.77;;;7.07;;
65210;SDS011;51794;52.758;55.792;2022-09-02T04:19:24;10.38;;;6.57;;
65210;SDS011;51794;52.758;55.792;2022-09-02T04:21:50;11.70;;;7.13;;
65210;SDS011;51794;52.758;55.792;2022-09-02T04:24:16;9.00;;;6.97;;
65210;SDS011;51794;52.758;55.792;2022-09-02T04:26:42;10.73;;;6.78;;
65210;SDS011;51794;52.758;55.792;2022-09-02T04:29:08;10.32;;;7.40;;
65210;SDS011;51794;52.758;55.792;2022-09-02T04:31:34;12.52;;;7.75;;
65210;SDS011;51794;52.758;55.792;2022-09-02T04:34:00;14.25;;;7.90;;
65210;SDS011;51794;52.758;55.792;2022-09-02T04:36:27;11.27;;;7.25;;
65210;SDS011;51794;52.758;55.792;2022-09-02T04:38:53;13.93;;;10.00;;
65210;SDS011;51794;52.758;55.792;2022-09-02T04:41:22;10.35;;;7.50;;
65210;SDS011;51794;52.758;55.792;2022-09-02T04:43:51;10.85;;;7.30;;
65210;SDS011;51794;52.758;55.792;2022-09-02T04:46:19;10.13;;;7.50;;
65210;SDS011;51794;52.758;55.792;2022-09-02T04:48:45;13.68;;;7.32;;
65210;SDS011;51794;52.758;55.792;2022-09-02T04:51:13;10.35;;;7.68;;
65210;SDS011;51794;52.758;55.792;2022-09-02T04:53:41;11.95;;;7.93;;
65210;SDS011;51794;52.758;55.792;2022-09-02T04:56:09;13.45;;;8.30;;
65210;SDS011;51794;52.758;55.792;2022-09-02T05:01:06;12.13;;;8.20;;
65210;SDS011;51794;52.758;55.792;2022-09-02T05:03:35;13.95;;;8.40;;
65210;SDS011;51794;52.758;55.792;2022-09-02T05:06:03;13.98;;;8.38;;
65210;SDS011;51794;52.758;55.792;2022-09-02T05:08:31;13.82;;;8.90;;
65210;SDS011;51794;52.758;55.792;2022-09-02T05:10:58;13.18;;;8.57;;
65210;SDS011;51794;52.758;55.792;2022-09-02T05:13:24;11.93;;;8.90;;
65210;SDS011;51794;52.758;55.792;2022-09-02T05:15:51;12.27;;;7.28;;
65210;SDS011;51794;52.758;55.792;2022-09-02T05:18:17;9.73;;;8.20;;
65210;SDS011;51794;52.758;55.792;2022-09-02T05:20:43;12.20;;;7.90;;
65210;SDS011;51794;52.758;55.792;2022-09-02T05:23:10;10.63;;;8.40;;
65210;SDS011;51794;52.758;55.792;2022-09-02T05:25:37;10.60;;;8.73;;
65210;SDS011;51794;52.758;55.792;2022-09-02T05:28:05;11.93;;;8.50;;
65210;SDS011;51794;52.758;55.792;2022-09-02T05:30:37;11.82;;;8.77;;
65210;SDS011;51794;52.758;55.792;2022-09-02T05:33:04;9.90;;;8.52;;
65210;SDS011;51794;52.758;55.792;2022-09-02T05:35:30;13.05;;;8.77;;
65210;SDS011;51794;52.758;55.792;2022-09-02T05:37:57;12.07;;;8.82;;
65210;SDS011;51794;52.758;55.792;2022-09-02T05:40:23;12.45;;;8.60;;
65210;SDS011;51794;52.758;55.792;2022-09-02T05:42:49;11.65;;;9.05;;
65210;SDS011;51794;52.758;55.792;2022-09-02T05:45:16;11.10;;;8.57;;
65210;SDS011;51794;52.758;55.792;2022-09-02T05:47:42;13.10;;;9.43;;
65210;SDS011;51794;52.758;55.792;2022-09-02T05:50:08;16.77;;;9.32;;
65210;SDS011;51794;52.758;55.792;2022-09-02T05:52:34;15.60;;;9.00;;
65210;SDS011;51794;52.758;55.792;2022-09-02T05:55:00;11.52;;;8.73;;
65210;SDS011;51794;52.758;55.792;2022-09-02T05:57:28;13.52;;;9.02;;
65210;SDS011;51794;52.758;55.792;2022-09-02T05:59:54;15.65;;;9.95;;
65210;SDS011;51794;52.758;55.792;2022-09-02T06:02:22;13.05;;;9.60;;
65210;SDS011;51794;52.758;55.792;2022-09-02T06:04:50;13.13;;;8.90;;
65210;SDS011;51794;52.758;55.792;2022-09-02T06:07:18;12.18;;;9.10;;
65210;SDS011;51794;52.758;55.792;2022-09-02T06:09:46;10.95;;;8.73;;
65210;SDS011;51794;52.758;55.792;2022-09-02T06:12:13;12.30;;;9.18;;
65210;SDS011;51794;52.758;55.792;2022-09-02T06:14:44;11.93;;;9.23;;
65210;SDS011;51794;52.758;55.792;2022-09-02T06:17:12;15.77;;;8.80;;
65210;SDS011;51794;52.758;55.792;2022-09-02T06:19:38;14.85;;;8.40;;
65210;SDS011;51794;52.758;55.792;2022-09-02T06:22:04;13.70;;;8.55;;
65210;SDS011;51794;52.758;55.792;2022-09-02T06:24:31;16.90;;;7.15;;
65210;SDS011;51794;52.758;55.792;2022-09-02T06:26:57;14.00;;;6.93;;
65210;SDS011;51794;52.758;55.792;2022-09-02T06:29:24;14.93;;;7.50;;
65210;SDS011;51794;52.758;55.792;2022-09-02T06:31:51;10.38;;;6.45;;
65210;SDS011;51794;52.758;55.792;2022-09-02T06:34:18;11.82;;;6.22;;
65210;SDS011;51794;52.758;55.792;2022-09-02T06:36:46;9.88;;;5.40;;
65210;SDS011;51794;52.758;55.792;2022-09-02T06:39:14;14.10;;;5.72;;
65210;SDS011;51794;52.758;55.792;2022-09-02T06:41:42;7.57;;;5.28;;
65210;SDS011;51794;52.758;55.792;2022-09-02T06:44:11;11.20;;;4.63;;
65210;SDS011;51794;52.758;55.792;2022-09-02T06:46:39;7.90;;;4.75;;
65210;SDS011;51794;52.758;55.792;2022-09-02T06:49:11;11.00;;;5.03;;
65210;SDS011;51794;52.758;55.792;2022-09-02T06:51:38;7.97;;;5.13;;
65210;SDS011;51794;52.758;55.792;2022-09-02T06:54:06;8.60;;;5.07;;
65210;SDS011;51794;52.758;55.792;2022-09-02T06:56:35;7.73;;;4.97;;
65210;SDS011;51794;52.758;55.792;2022-09-02T06:59:01;11.70;;;5.03;;
65210;SDS011;51794;52.758;55.792;2022-09-02T07:01:29;9.18;;;4.88;;
65210;SDS011;51794;52.758;55.792;2022-09-02T07:03:56;7.65;;;5.15;;
65210;SDS011;51794;52.758;55.792;2022-09-02T07:06:42;11.65;;;5.05;;
65210;SDS011;51794;52.758;55.792;2022-09-02T07:09:13;6.88;;;4.78;;
65210;SDS011;51794;52.758;55.792;2022-09-02T07:11:41;6.07;;;4.93;;
65210;SDS011;51794;52.758;55.792;2022-09-02T07:14:07;9.70;;;4.93;;
65210;SDS011;51794;52.758;55.792;2022-09-02T07:16:35;8.80;;;5.35;;
65210;SDS011;51794;52.758;55.792;2022-09-02T07:19:07;7.45;;;4.95;;
65210;SDS011;51794;52.758;55.792;2022-09-02T07:21:33;11.60;;;4.85;;
65210;SDS011;51794;52.758;55.792;2022-09-02T07:24:00;6.95;;;4.22;;
65210;SDS011;51794;52.758;55.792;2022-09-02T07:26:27;11.70;;;4.63;;
65210;SDS011;51794;52.758;55.792;2022-09-02T07:28:54;7.38;;;4.63;;
65210;SDS011;51794;52.758;55.792;2022-09-02T07:31:21;15.05;;;4.65;;
65210;SDS011;51794;52.758;55.792;2022-09-02T07:33:47;5.97;;;4.25;;
65210;SDS011;51794;52.758;55.792;2022-09-02T07:36:13;7.45;;;4.57;;
65210;SDS011;51794;52.758;55.792;2022-09-02T07:38:40;9.00;;;4.47;;
65210;SDS011;51794;52.758;55.792;2022-09-02T07:41:08;11.38;;;4.82;;
65210;SDS011;51794;52.758;55.792;2022-09-02T07:43:35;8.48;;;4.65;;
65210;SDS011;51794;52.758;55.792;2022-09-02T07:46:03;6.97;;;4.60;;
65210;SDS011;51794;52.758;55.792;2022-09-02T07:48:30;8.68;;;4.07;;
65210;SDS011;51794;52.758;55.792;2022-09-02T07:50:57;6.38;;;3.53;;
65210;SDS011;51794;52.758;55.792;2022-09-02T07:53:24;10.55;;;3.83;;
65210;SDS011;51794;52.758;55.792;2022-09-02T07:55:50;5.60;;;3.28;;
65210;SDS011;51794;52.758;55.792;2022-09-02T07:58:17;7.63;;;4.03;;
65210;SDS011;51794;52.758;55.792;2022-09-02T08:00:45;8.38;;;4.25;;
65210;SDS011;51794;52.758;55.792;2022-09-02T08:03:12;8.77;;;4.10;;
65210;SDS011;51794;52.758;55.792;2022-09-02T08:05:39;5.25;;;3.63;;
65210;SDS011;51794;52.758;55.792;2022-09-02T08:08:06;7.85;;;3.83;;
65210;SDS011;51794;52.758;55.792;2022-09-02T08:10:33;7.07;;;3.90;;
65210;SDS011;51794;52.758;55.792;2022-09-02T08:13:00;8.88;;;3.85;;
65210;SDS011;51794;52.758;55.792;2022-09-02T08:15:27;10.15;;;3.65;;
65210;SDS011;51794;52.758;55.792;2022-09-02T08:17:55;7.80;;;3.50;;
65210;SDS011;51794;52.758;55.792;2022-09-02T08:20:22;5.95;;;3.60;;
65210;SDS011;51794;52.758;55.792;2022-09-02T08:22:48;6.85;;;4.00;;
65210;SDS011;51794;52.758;55.792;2022-09-02T08:25:15;5.70;;;3.63;;
65210;SDS011;51794;52.758;55.792;2022-09-02T08:27:42;7.78;;;3.83;;
65210;SDS011;51794;52.758;55.792;2022-09-02T08:30:10;9.65;;;3.92;;
65210;SDS011;51794;52.758;55.792;2022-09-02T08:32:36;7.35;;;3.65;;
65210;SDS011;51794;52.758;55.792;2022-09-02T08:35:03;7.22;;;3.70;;
65210;SDS011;51794;52.758;55.792;2022-09-02T08:37:31;5.13;;;4.10;;
65210;SDS011;51794;52.758;55.792;2022-09-02T08:39:58;6.53;;;3.60;;
65210;SDS011;51794;52.758;55.792;2022-09-02T08:45:11;4.32;;;3.33;;
65210;SDS011;51794;52.758;55.792;2022-09-02T08:48:05;5.82;;;3.13;;
65210;SDS011;51794;52.758;55.792;2022-09-02T08:50:32;5.13;;;3.50;;
65210;SDS011;51794;52.758;55.792;2022-09-02T08:53:03;6.10;;;3.28;;
65210;SDS011;51794;52.758;55.792;2022-09-02T08:55:45;7.18;;;3.60;;
65210;SDS011;51794;52.758;55.792;2022-09-02T08:58:23;7.63;;;3.60;;
65210;SDS011;51794;52.758;55.792;2022-09-02T09:01:05;7.47;;;3.53;;
65210;SDS011;51794;52.758;55.792;2022-09-02T09:03:35;8.45;;;3.47;;
65210;SDS011;51794;52.758;55.792;2022-09-02T09:06:15;7.70;;;3.67;;
65210;SDS011;51794;52.758;55.792;2022-09-02T09:09:03;5.10;;;3.50;;
65210;SDS011;51794;52.758;55.792;2022-09-02T09:11:44;7.63;;;3.90;;
65210;SDS011;51794;52.758;55.792;2022-09-02T09:20:19;7.18;;;4.03;;
65210;SDS011;51794;52.758;55.792;2022-09-02T09:22:50;5.40;;;3.80;;
65210;SDS011;51794;52.758;55.792;2022-09-02T09:25:21;6.95;;;3.95;;
65210;SDS011;51794;52.758;55.792;2022-09-02T09:27:54;5.78;;;4.15;;
65210;SDS011;51794;52.758;55.792;2022-09-02T09:30:21;10.90;;;5.25;;
65210;SDS011;51794;52.758;55.792;2022-09-02T09:32:52;6.10;;;4.28;;
65210;SDS011;51794;52.758;55.792;2022-09-02T09:35:19;6.20;;;3.92;;
65210;SDS011;51794;52.758;55.792;2022-09-02T09:42:55;4.40;;;3.28;;
65210;SDS011;51794;52.758;55.792;2022-09-02T09:45:38;5.10;;;3.00;;
65210;SDS011;51794;52.758;55.792;2022-09-02T09:51:14;5.18;;;3.22;;
65210;SDS011;51794;52.758;55.792;2022-09-02T09:53:37;4.82;;;2.85;;
65210;SDS011;51794;52.758;55.792;2022-09-02T09:58:33;4.93;;;3.13;;
65210;SDS011;51794;52.758;55.792;2022-09-02T10:01:15;5.00;;;3.03;;
65210;SDS011;51794;52.758;55.792;2022-09-02T10:03:48;4.80;;;3.20;;
65210;SDS011;51794;52.758;55.792;2022-09-02T10:10:26;6.22;;;3.15;;
65210;SDS011;51794;52.758;55.792;2022-09-02T10:12:55;4.13;;;3.33;;
65210;SDS011;51794;52.758;55.792;2022-09-02T10:18:07;7.13;;;3.10;;
65210;SDS011;51794;52.758;55.792;2022-09-02T10:20:56;4.97;;;3.25;;
65210;SDS011;51794;52.758;55.792;2022-09-02T10:23:52;4.13;;;3.28;;
65210;SDS011;51794;52.758;55.792;2022-09-02T10:26:32;4.75;;;3.55;;
65210;SDS011;51794;52.758;55.792;2022-09-02T10:37:19;8.38;;;3.85;;
65210;SDS011;51794;52.758;55.792;2022-09-02T10:42:30;6.20;;;3.35;;
65210;SDS011;51794;52.758;55.792;2022-09-02T10:56:37;7.20;;;3.53;;
65210;SDS011;51794;52.758;55.792;2022-09-02T10:59:11;6.47;;;3.70;;
65210;SDS011;51794;52.758;55.792;2022-09-02T11:07:03;5.80;;;3.58;;
65210;SDS011;51794;52.758;55.792;2022-09-02T11:09:34;4.25;;;3.63;;
65210;SDS011;51794;52.758;55.792;2022-09-02T11:12:15;6.32;;;3.78;;
65210;SDS011;51794;52.758;55.792;2022-09-02T11:15:10;4.13;;;3.50;;
65210;SDS011;51794;52.758;55.792;2022-09-02T11:26:31;6.13;;;3.33;;
65210;SDS011;51794;52.758;55.792;2022-09-02T11:31:55;4.35;;;3.40;;
65210;SDS011;51794;52.758;55.792;2022-09-02T11:37:01;4.18;;;3.47;;
65210;SDS011;51794;52.758;55.792;2022-09-02T11:39:33;6.47;;;3.65;;
65210;SDS011;51794;52.758;55.792;2022-09-02T11:53:54;6.95;;;5.40;;
65210;SDS011;51794;52.758;55.792;2022-09-02T11:56:25;9.63;;;4.80;;
65210;SDS011;51794;52.758;55.792;2022-09-02T11:58:55;7.68;;;4.40;;
65210;SDS011;51794;52.758;55.792;2022-09-02T12:01:28;8.82;;;5.18;;
65210;SDS011;51794;52.758;55.792;2022-09-02T12:03:57;12.77;;;5.22;;
65210;SDS011;51794;52.758;55.792;2022-09-02T12:06:31;9.98;;;5.07;;
65210;SDS011;51794;52.758;55.792;2022-09-02T12:08:59;10.27;;;5.57;;
65210;SDS011;51794;52.758;55.792;2022-09-02T12:11:41;11.25;;;5.20;;
65210;SDS011;51794;52.758;55.792;2022-09-02T12:16:58;6.38;;;4.50;;
65210;SDS011;51794;52.758;55.792;2022-09-02T12:19:38;6.88;;;4.65;;
65210;SDS011;51794;52.758;55.792;2022-09-02T12:22:25;5.70;;;4.07;;
65210;SDS011;51794;52.758;55.792;2022-09-02T12:25:00;4.95;;;3.90;;
65210;SDS011;51794;52.758;55.792;2022-09-02T12:29:58;6.07;;;4.18;;
65210;SDS011;51794;52.758;55.792;2022-09-02T12:35:31;5.95;;;3.28;;
65210;SDS011;51794;52.758;55.792;2022-09-02T12:40:40;5.53;;;3.53;;
65210;SDS011;51794;52.758;55.792;2022-09-02T12:43:24;5.57;;;3.55;;
65210;SDS011;51794;52.758;55.792;2022-09-02T12:46:31;6.82;;;3.17;;
65210;SDS011;51794;52.758;55.792;2022-09-02T12:49:05;7.22;;;4.30;;
65210;SDS011;51794;52.758;55.792;2022-09-02T12:57:07;5.38;;;3.88;;
65210;SDS011;51794;52.758;55.792;2022-09-02T12:59:38;5.35;;;4.18;;
65210;SDS011;51794;52.758;55.792;2022-09-02T13:04:53;13.55;;;9.90;;
65210;SDS011;51794;52.758;55.792;2022-09-02T13:21:47;11.30;;;4.65;;
65210;SDS011;51794;52.758;55.792;2022-09-02T13:32:40;6.07;;;3.65;;
65210;SDS011;51794;52.758;55.792;2022-09-02T13:35:07;6.40;;;4.38;;
65210;SDS011;51794;52.758;55.792;2022-09-02T13:37:43;6.85;;;4.50;;
65210;SDS011;51794;52.758;55.792;2022-09-02T13:42:56;6.82;;;4.75;;
65210;SDS011;51794;52.758;55.792;2022-09-02T13:45:26;7.35;;;4.40;;
65210;SDS011;51794;52.758;55.792;2022-09-02T13:48:18;7.18;;;4.65;;
65210;SDS011;51794;52.758;55.792;2022-09-02T13:50:48;8.43;;;4.95;;
65210;SDS011;51794;52.758;55.792;2022-09-02T13:55:47;6.75;;;5.10;;
65210;SDS011;51794;52.758;55.792;2022-09-02T14:03:48;9.63;;;5.30;;
65210;SDS011;51794;52.758;55.792;2022-09-02T14:06:28;6.68;;;5.38;;
65210;SDS011;51794;52.758;55.792;2022-09-02T14:08:58;7.15;;;5.03;;
65210;SDS011;51794;52.758;55.792;2022-09-02T14:11:26;8.20;;;6.03;;
65210;SDS011;51794;52.758;55.792;2022-09-02T14:13:53;11.57;;;7.20;;
65210;SDS011;51794;52.758;55.792;2022-09-02T14:16:31;9.13;;;7.93;;
65210;SDS011;51794;52.758;55.792;2022-09-02T14:21:31;18.52;;;10.40;;
65210;SDS011;51794;52.758;55.792;2022-09-02T14:23:57;26.77;;;15.80;;
65210;SDS011;51794;52.758;55.792;2022-09-02T14:26:36;60.38;;;25.23;;
65210;SDS011;51794;52.758;55.792;2022-09-02T14:29:06;126.20;;;43.88;;
65210;SDS011;51794;52.758;55.792;2022-09-02T14:34:02;91.63;;;38.28;;
65210;SDS011;51794;52.758;55.792;2022-09-02T14:36:34;53.35;;;25.42;;
65210;SDS011;51794;52.758;55.792;2022-09-02T14:39:09;32.83;;;16.10;;
65210;SDS011;51794;52.758;55.792;2022-09-02T14:41:44;29.63;;;16.00;;
65210;SDS011;51794;52.758;55.792;2022-09-02T14:44:25;28.38;;;20.98;;
65210;SDS011;51794;52.758;55.792;2022-09-02T14:46:59;25.27;;;20.95;;
65210;SDS011;51794;52.758;55.792;2022-09-02T14:49:29;24.80;;;17.55;;
65210;SDS011;51794;52.758;55.792;2022-09-02T14:51:58;15.37;;;12.20;;
65210;SDS011;51794;52.758;55.792;2022-09-02T14:59:53;13.90;;;12.27;;
65210;SDS011;51794;52.758;55.792;2022-09-02T15:04:56;16.23;;;14.52;;
65210;SDS011;51794;52.758;55.792;2022-09-02T15:07:24;12.50;;;9.60;;
65210;SDS011;51794;52.758;55.792;2022-09-02T15:09:51;11.38;;;8.15;;
65210;SDS011;51794;52.758;55.792;2022-09-02T15:12:18;12.85;;;7.63;;
65210;SDS011;51794;52.758;55.792;2022-09-02T15:14:52;9.18;;;7.50;;
65210;SDS011;51794;52.758;55.792;2022-09-02T15:17:19;8.68;;;7.65;;
65210;SDS011;51794;52.758;55.792;2022-09-02T15:19:45;11.27;;;8.38;;
65210;SDS011;51794;52.758;55.792;2022-09-02T15:22:12;9.25;;;7.70;;
65210;SDS011;51794;52.758;55.792;2022-09-02T15:24:39;10.00;;;6.68;;
65210;SDS011;51794;52.758;55.792;2022-09-02T15:27:05;8.20;;;7.40;;
65210;SDS011;51794;52.758;55.792;2022-09-02T15:29:31;10.98;;;9.80;;
65210;SDS011;51794;52.758;55.792;2022-09-02T15:31:57;12.93;;;10.18;;
65210;SDS011;51794;52.758;55.792;2022-09-02T15:34:23;17.80;;;12.55;;
65210;SDS011;51794;52.758;55.792;2022-09-02T15:36:49;21.58;;;16.75;;
65210;SDS011;51794;52.758;55.792;2022-09-02T15:39:15;34.58;;;22.08;;
65210;SDS011;51794;52.758;55.792;2022-09-02T15:41:43;29.05;;;19.95;;
65210;SDS011;51794;52.758;55.792;2022-09-02T15:44:09;21.35;;;15.57;;
65210;SDS011;51794;52.758;55.792;2022-09-02T15:46:36;13.35;;;10.35;;
65210;SDS011;51794;52.758;55.792;2022-09-02T15:49:03;9.43;;;8.05;;
65210;SDS011;51794;52.758;55.792;2022-09-02T15:51:34;9.18;;;7.05;;
65210;SDS011;51794;52.758;55.792;2022-09-02T15:54:04;9.80;;;7.93;;
65210;SDS011;51794;52.758;55.792;2022-09-02T15:56:33;11.93;;;9.60;;
65210;SDS011;51794;52.758;55.792;2022-09-02T15:59:02;14.48;;;9.65;;
65210;SDS011;51794;52.758;55.792;2022-09-02T16:01:33;11.48;;;9.98;;
65210;SDS011;51794;52.758;55.792;2022-09-02T16:04:03;12.63;;;10.03;;
65210;SDS011;51794;52.758;55.792;2022-09-02T16:06:30;11.02;;;8.70;;
65210;SDS011;51794;52.758;55.792;2022-09-02T16:08:58;11.07;;;8.40;;
65210;SDS011;51794;52.758;55.792;2022-09-02T16:11:24;11.38;;;7.38;;
65210;SDS011;51794;52.758;55.792;2022-09-02T16:13:51;9.63;;;6.82;;
65210;SDS011;51794;52.758;55.792;2022-09-02T16:16:17;8.50;;;6.50;;
65210;SDS011;51794;52.758;55.792;2022-09-02T16:18:47;8.43;;;6.22;;
65210;SDS011;51794;52.758;55.792;2022-09-02T16:21:15;7.18;;;5.55;;
65210;SDS011;51794;52.758;55.792;2022-09-02T16:23:42;10.13;;;5.65;;
65210;SDS011;51794;52.758;55.792;2022-09-02T16:26:13;7.88;;;5.43;;
65210;SDS011;51794;52.758;55.792;2022-09-02T16:28:40;6.75;;;5.32;;
65210;SDS011;51794;52.758;55.792;2022-09-02T16:31:08;8.18;;;5.47;;
65210;SDS011;51794;52.758;55.792;2022-09-02T16:33:35;8.95;;;5.75;;
65210;SDS011;51794;52.758;55.792;2022-09-02T16:36:03;7.72;;;6.05;;
65210;SDS011;51794;52.758;55.792;2022-09-02T16:38:29;9.02;;;6.47;;
65210;SDS011;51794;52.758;55.792;2022-09-02T16:40:56;6.95;;;6.25;;
65210;SDS011;51794;52.758;55.792;2022-09-02T16:43:23;8.80;;;6.65;;
65210;SDS011;51794;52.758;55.792;2022-09-02T16:45:50;9.80;;;6.15;;
65210;SDS011;51794;52.758;55.792;2022-09-02T16:48:18;7.28;;;5.70;;
65210;SDS011;51794;52.758;55.792;2022-09-02T16:50:45;6.97;;;5.25;;
65210;SDS011;51794;52.758;55.792;2022-09-02T16:53:12;8.18;;;5.32;;
65210;SDS011;51794;52.758;55.792;2022-09-02T16:55:42;6.70;;;5.00;;
65210;SDS011;51794;52.758;55.792;2022-09-02T16:58:09;8.20;;;5.93;;
65210;SDS011;51794;52.758;55.792;2022-09-02T17:00:37;6.60;;;4.70;;
65210;SDS011;51794;52.758;55.792;2022-09-02T17:03:13;6.32;;;4.78;;
65210;SDS011;51794;52.758;55.792;2022-09-02T17:05:43;6.07;;;5.05;;
65210;SDS011;51794;52.758;55.792;2022-09-02T17:08:10;11.45;;;5.72;;